Ora Direzione Vento Velocita' Vento Media Vento Raffica Max. Temperatura Wind Chill Pioggia Pressione
04:27:07.0321 °(NW)0.0 Kts0.0 Kts15.6 Kts13.1 °C21.26 °C0.0 mm1016.3 Hpa
04:05:18.0271 °(W)10.2 Kts9.4 Kts15.6 Kts13.6 °C12.13 °C0.0 mm1014.7 Hpa
03:45:32.0258 °(WSW)8.5 Kts7.96 Kts15.2 Kts14.1 °C12.92 °C0.0 mm1015.2 Hpa
03:26:25.0256 °(WSW)15.2 Kts14.86 Kts15.2 Kts14.3 °C12.37 °C0.0 mm1015.8 Hpa
03:05:14.0157 °(SSE)0.4 Kts0.83 Kts9.2 Kts12.6 °C14.83 °C0.0 mm1018.1 Hpa
02:46:08.0108 °(ESE)5.6 Kts5.73 Kts9.2 Kts12.5 °C11.65 °C0.0 mm1015.8 Hpa
02:26:49.0104 °(ESE)5.1 Kts4.66 Kts8.5 Kts12.3 °C11.61 °C0.0 mm1018.0 Hpa
02:05:35.0131 °(SE)5.4 Kts6.06 Kts8.5 Kts12.5 °C11.72 °C0.0 mm1016.8 Hpa
01:45:57.091 °(E)3.3 Kts3.9 Kts7.1 Kts12.5 °C12.43 °C0.0 mm1015.8 Hpa
01:26:17.0102 °(ESE)3.2 Kts3.66 Kts7.1 Kts12.3 °C12.2 °C0.0 mm1016.3 Hpa
01:06:31.0105 °(ESE)6.3 Kts6.53 Kts7.1 Kts12.3 °C11.22 °C0.0 mm1016.8 Hpa
00:47:02.095 °(E)3.4 Kts3.53 Kts6.7 Kts12.1 °C11.9 °C0.0 mm1017.5 Hpa
00:25:27.079 °(E)2.4 Kts2.83 Kts6.7 Kts12.3 °C12.65 °C0.0 mm1018.6 Hpa
00:05:48.079 °(E)3.1 Kts4.76 Kts6.7 Kts12.1 °C12.09 °C0.0 mm1019.1 Hpa
23:46:17.088 °(E)4.5 Kts5.53 Kts10.6 Kts12.3 °C11.74 °C0.0 mm1017.5 Hpa
23:26:39.0102 °(ESE)0.0 Kts0.0 Kts10.6 Kts12.3 °C20.76 °C0.0 mm1018.6 Hpa
23:06:46.091 °(E)0.0 Kts0.0 Kts10.6 Kts12.3 °C20.76 °C0.0 mm1019.6 Hpa
22:47:05.0101 °(E)0.0 Kts0.0 Kts10.6 Kts12.3 °C20.76 °C0.0 mm1018.6 Hpa
22:25:09.091 °(E)0.0 Kts0.0 Kts10.6 Kts12.8 °C21.07 °C0.0 mm1019.1 Hpa
22:05:19.096 °(E)0.0 Kts0.0 Kts10.6 Kts13.1 °C21.26 °C0.0 mm1020.2 Hpa